Time;durP1;ratioP1;P1;durP2;ratioP2;P2;SDS_P1;SDS_P2;PMS_P1;PMS_P2;Temp;Humidity;BMP_temperature;BMP_pressure;BME280_temperature;BME280_humidity;BME280_pressure;Samples;Min_cycle;Max_cycle;Signal;HPM_P1;HPM_P2
2022/07/12 00:02:06;;;;;;;3.28;3.08;;;18.60;99.90;;;;;;5099426;28;20020;-77
2022/07/12 00:04:32;;;;;;;3.55;2.60;;;18.50;99.90;;;;;;5099636;28;20028;-78
2022/07/12 00:06:57;;;;;;;2.70;2.33;;;18.40;99.90;;;;;;5098097;28;20051;-78
2022/07/12 00:09:23;;;;;;;2.97;2.78;;;18.40;99.90;;;;;;5091095;28;20055;-78
2022/07/12 00:11:49;;;;;;;2.85;2.60;;;18.40;99.90;;;;;;5092099;28;20032;-78
2022/07/12 00:14:15;;;;;;;3.70;3.40;;;18.30;99.90;;;;;;5098515;28;20360;-77
2022/07/12 00:16:41;;;;;;;2.78;2.60;;;18.30;99.90;;;;;;5099194;28;20426;-77
2022/07/12 00:19:06;;;;;;;4.72;3.20;;;18.30;99.90;;;;;;5099057;28;20020;-78
2022/07/12 00:21:32;;;;;;;2.90;2.70;;;18.20;99.90;;;;;;5098610;28;20035;-77
2022/07/12 00:23:57;;;;;;;7.28;3.53;;;18.20;99.90;;;;;;5098785;28;20399;-78
2022/07/12 00:26:23;;;;;;;3.55;3.35;;;18.10;99.90;;;;;;5095439;28;20051;-78
2022/07/12 00:28:49;;;;;;;4.32;4.03;;;18.10;99.90;;;;;;5094791;28;20023;-78
2022/07/12 00:31:14;;;;;;;3.75;3.45;;;18.10;99.90;;;;;;5095750;28;20356;-77
2022/07/12 00:33:40;;;;;;;3.65;3.45;;;18.00;99.90;;;;;;5095674;28;20024;-78
2022/07/12 00:36:06;;;;;;;3.95;3.65;;;18.10;99.90;;;;;;5094975;28;20031;-78
2022/07/12 00:38:31;;;;;;;4.32;3.95;;;18.00;99.90;;;;;;5096140;28;20024;-78
2022/07/12 00:40:57;;;;;;;4.10;3.80;;;18.00;99.90;;;;;;5095926;28;20077;-78
2022/07/12 00:43:23;;;;;;;4.38;3.97;;;18.00;99.90;;;;;;5095320;28;20028;-78
2022/07/12 00:45:49;;;;;;;4.65;3.78;;;17.90;99.90;;;;;;5094942;28;20524;-77
2022/07/12 00:48:17;;;;;;;3.78;3.47;;;18.00;99.90;;;;;;5094698;28;20024;-78
2022/07/12 00:50:44;;;;;;;4.50;3.22;;;17.90;99.90;;;;;;5095376;28;20031;-78
2022/07/12 00:53:10;;;;;;;4.25;3.95;;;17.90;99.90;;;;;;5095065;28;20024;-78
2022/07/12 00:55:35;;;;;;;6.45;4.45;;;17.80;99.90;;;;;;5095084;28;20016;-79
2022/07/12 00:58:01;;;;;;;4.20;3.90;;;17.80;99.90;;;;;;5095700;28;20024;-77
2022/07/12 01:00:28;;;;;;;4.43;4.00;;;17.80;99.90;;;;;;5096199;28;20024;-78
2022/07/12 01:02:55;;;;;;;4.07;3.60;;;17.70;99.90;;;;;;5094377;28;20047;-78
2022/07/12 01:05:21;;;;;;;3.92;3.63;;;17.70;99.90;;;;;;5094537;28;20028;-79
2022/07/12 01:07:48;;;;;;;4.00;3.70;;;17.70;99.90;;;;;;5094398;28;20040;-78
2022/07/12 01:10:14;;;;;;;4.07;3.78;;;17.70;99.90;;;;;;5079284;28;20450;-78
2022/07/12 01:12:40;;;;;;;4.28;3.97;;;17.60;99.90;;;;;;5094264;28;20124;-78
2022/07/12 01:15:15;;;;;;;4.35;4.05;;;17.70;99.90;;;;;;5094860;28;20471;-79
2022/07/12 01:17:44;;;;;;;4.40;4.10;;;17.70;99.90;;;;;;5084697;28;20020;-78
2022/07/12 01:20:10;;;;;;;4.38;3.95;;;17.60;99.90;;;;;;5093700;28;20044;-78
2022/07/12 01:22:41;;;;;;;4.97;4.68;;;17.60;99.90;;;;;;5075687;28;20518;-78
2022/07/12 01:25:07;;;;;;;5.00;4.60;;;17.60;99.90;;;;;;5093612;28;20066;-77
2022/07/12 01:27:33;;;;;;;5.03;4.65;;;17.60;99.90;;;;;;5094338;28;20076;-78
2022/07/12 01:30:00;;;;;;;4.65;4.07;;;17.60;99.90;;;;;;5093572;28;20417;-77
2022/07/12 01:32:26;;;;;;;5.03;4.53;;;17.60;99.90;;;;;;5093344;28;20036;-77
2022/07/12 01:35:01;;;;;;;4.72;4.43;;;17.70;99.90;;;;;;5093443;28;20485;-77
2022/07/12 01:37:34;;;;;;;4.60;4.20;;;17.60;99.90;;;;;;5091784;28;20031;-77
2022/07/12 01:40:00;;;;;;;4.72;4.32;;;17.60;99.90;;;;;;5093386;28;20020;-78
2022/07/12 01:42:28;;;;;;;5.75;4.72;;;17.60;99.90;;;;;;5079828;28;20094;-78
2022/07/12 01:44:54;;;;;;;4.93;4.50;;;17.60;99.90;;;;;;5078410;28;20547;-78
2022/07/12 01:47:21;;;;;;;4.57;4.28;;;17.60;99.90;;;;;;5093604;28;20032;-78
2022/07/12 01:49:47;;;;;;;4.70;4.40;;;17.60;99.90;;;;;;5093353;28;20500;-78
2022/07/12 01:52:14;;;;;;;5.18;4.68;;;17.50;99.90;;;;;;5092628;28;20039;-77
2022/07/12 01:54:40;;;;;;;4.95;4.50;;;17.60;99.90;;;;;;5093284;28;20407;-78
2022/07/12 01:57:05;;;;;;;5.10;4.70;;;17.50;99.90;;;;;;5093361;28;20023;-77
2022/07/12 01:59:32;;;;;;;5.47;4.57;;;17.50;99.90;;;;;;5092504;28;20039;-78
2022/07/12 02:01:58;;;;;;;4.90;4.55;;;17.40;99.90;;;;;;5093091;28;20107;-78
2022/07/12 02:04:24;;;;;;;5.47;4.45;;;17.40;99.90;;;;;;5093144;28;20108;-77
2022/07/12 02:06:49;;;;;;;4.15;3.85;;;17.40;99.90;;;;;;5092240;28;20047;-77
2022/07/12 02:09:16;;;;;;;4.78;4.47;;;17.40;99.90;;;;;;5086819;28;20054;-78
2022/07/12 02:11:43;;;;;;;6.15;5.70;;;17.40;99.90;;;;;;5087614;28;20035;-78
2022/07/12 02:14:09;;;;;;;5.88;4.50;;;17.30;99.90;;;;;;5093608;28;20027;-78
2022/07/12 02:16:35;;;;;;;7.15;4.82;;;17.30;99.90;;;;;;5094331;28;20020;-78
2022/07/12 02:19:01;;;;;;;5.45;4.95;;;17.30;99.90;;;;;;5092446;28;20042;-78
2022/07/12 02:21:27;;;;;;;6.35;4.68;;;17.30;99.90;;;;;;5092496;28;20035;-78
2022/07/12 02:23:52;;;;;;;5.38;4.97;;;17.30;99.90;;;;;;5092594;28;20024;-78
2022/07/12 02:26:18;;;;;;;5.22;4.78;;;17.20;99.90;;;;;;5080512;28;20124;-78
2022/07/12 02:28:44;;;;;;;5.55;5.15;;;17.10;99.90;;;;;;5075950;28;20051;-78
2022/07/12 02:31:10;;;;;;;5.78;5.15;;;17.20;99.90;;;;;;5078780;28;20016;-78
2022/07/12 02:33:35;;;;;;;5.60;5.13;;;17.00;99.90;;;;;;5087283;28;20387;-78
2022/07/12 02:36:02;;;;;;;8.18;6.35;;;17.10;99.90;;;;;;5084121;28;20107;-78
2022/07/12 02:38:27;;;;;;;6.60;6.05;;;17.00;99.90;;;;;;5093117;28;20106;-78
2022/07/12 02:40:53;;;;;;;5.95;5.45;;;16.90;99.90;;;;;;5092427;28;20163;-78
2022/07/12 02:43:26;;;;;;;7.93;5.30;;;16.90;99.90;;;;;;5078917;28;20040;-77
2022/07/12 02:45:53;;;;;;;6.57;6.00;;;16.90;99.90;;;;;;5093107;28;20020;-77
2022/07/12 02:48:19;;;;;;;6.97;5.72;;;16.90;99.90;;;;;;5091816;28;20491;-78
2022/07/12 02:50:46;;;;;;;6.55;6.05;;;16.90;99.90;;;;;;5094145;28;20024;-79
2022/07/12 02:53:11;;;;;;;6.00;5.50;;;16.90;99.90;;;;;;5093111;28;20028;-78
2022/07/12 02:55:38;;;;;;;5.97;5.57;;;16.80;99.90;;;;;;5093112;28;20069;-79
2022/07/12 02:58:07;;;;;;;6.53;5.97;;;16.80;99.90;;;;;;5093479;28;20046;-78
2022/07/12 03:00:34;;;;;;;5.77;5.37;;;16.90;99.90;;;;;;5078804;28;20017;-78
2022/07/12 03:03:00;;;;;;;5.75;5.32;;;16.80;99.90;;;;;;5092102;28;20031;-78
2022/07/12 03:05:26;;;;;;;5.97;5.57;;;16.80;99.90;;;;;;5093572;28;20099;-79
2022/07/12 03:07:51;;;;;;;6.60;5.82;;;16.80;99.90;;;;;;5092564;28;20124;-77
2022/07/12 03:10:17;;;;;;;6.25;5.68;;;16.80;99.90;;;;;;5092111;28;20081;-78
2022/07/12 03:12:42;;;;;;;6.15;5.47;;;16.70;99.90;;;;;;5092776;28;20034;-78
2022/07/12 03:15:08;;;;;;;5.93;5.43;;;16.70;99.90;;;;;;5092487;28;20056;-79
2022/07/12 03:17:34;;;;;;;6.45;5.95;;;16.70;99.90;;;;;;5091613;28;20422;-78
2022/07/12 03:20:00;;;;;;;6.88;6.07;;;16.70;99.90;;;;;;5092532;28;20062;-78
2022/07/12 03:22:26;;;;;;;7.22;6.57;;;16.70;99.90;;;;;;5093842;28;20028;-78
2022/07/12 03:24:52;;;;;;;6.25;5.85;;;16.60;99.90;;;;;;5092016;28;20012;-78
2022/07/12 03:27:18;;;;;;;6.50;5.90;;;16.60;99.90;;;;;;5092931;28;20115;-78
2022/07/12 03:29:44;;;;;;;5.78;5.38;;;16.50;99.90;;;;;;5078750;28;20016;-78
2022/07/12 03:32:09;;;;;;;6.25;5.75;;;16.60;99.90;;;;;;5091617;28;20440;-78
2022/07/12 03:34:36;;;;;;;5.75;5.15;;;16.50;99.90;;;;;;5092421;28;20024;-77
2022/07/12 03:37:02;;;;;;;7.90;5.93;;;16.60;99.90;;;;;;5091783;28;20032;-77
2022/07/12 03:39:27;;;;;;;5.90;5.40;;;16.50;99.90;;;;;;5092669;28;20483;-78
2022/07/12 03:41:53;;;;;;;5.45;5.05;;;16.50;99.90;;;;;;5092120;28;20046;-78
2022/07/12 03:44:18;;;;;;;6.07;5.45;;;16.50;99.90;;;;;;5092215;28;20023;-78
2022/07/12 03:46:44;;;;;;;7.07;5.80;;;16.50;99.90;;;;;;5092259;28;20016;-78
2022/07/12 03:49:09;;;;;;;5.60;5.20;;;16.60;99.90;;;;;;5092461;28;20043;-78
2022/07/12 03:51:35;;;;;;;5.53;5.00;;;16.60;99.90;;;;;;5091455;28;20036;-78
2022/07/12 03:54:01;;;;;;;6.15;5.68;;;16.50;99.90;;;;;;5092447;28;20017;-78
2022/07/12 03:59:11;;;;;;;6.78;6.10;;;16.60;99.90;;;;;;5078952;28;20043;-77
2022/07/12 04:01:36;;;;;;;6.72;6.22;;;16.60;99.90;;;;;;5095632;28;20500;-76
2022/07/12 04:04:02;;;;;;;6.18;5.78;;;16.60;99.90;;;;;;5095879;28;20064;-77
2022/07/12 04:06:28;;;;;;;6.60;6.10;;;16.70;99.90;;;;;;5094800;28;20026;-79
2022/07/12 04:08:54;;;;;;;6.85;6.35;;;16.70;99.90;;;;;;5094837;28;20479;-80
2022/07/12 04:11:20;;;;;;;6.93;6.43;;;16.80;99.90;;;;;;5095360;28;20062;-78
2022/07/12 04:13:45;;;;;;;6.22;5.72;;;16.90;99.90;;;;;;5094501;28;20479;-78
2022/07/12 04:16:12;;;;;;;6.35;5.85;;;16.90;99.90;;;;;;5095936;28;20016;-78
2022/07/12 04:18:37;;;;;;;7.32;6.57;;;16.90;99.90;;;;;;5096320;28;20060;-78
2022/07/12 04:21:03;;;;;;;7.85;6.50;;;17.00;99.90;;;;;;5094024;28;20055;-79
2022/07/12 04:23:29;;;;;;;7.70;7.00;;;17.00;99.90;;;;;;5095287;28;20039;-78
2022/07/12 04:25:54;;;;;;;9.65;6.03;;;17.10;99.90;;;;;;5094731;28;20412;-78
2022/07/12 04:28:20;;;;;;;6.32;5.80;;;17.20;99.90;;;;;;5093391;28;20032;-79
2022/07/12 04:30:46;;;;;;;12.32;7.90;;;17.20;99.90;;;;;;5094830;28;20024;-78
2022/07/12 04:33:12;;;;;;;12.30;6.55;;;17.30;99.90;;;;;;5089889;28;20029;-78
2022/07/12 04:35:38;;;;;;;7.30;6.60;;;17.30;99.90;;;;;;5084394;28;20411;-78
2022/07/12 04:38:04;;;;;;;7.15;6.57;;;17.40;99.90;;;;;;5094612;28;20032;-78
2022/07/12 04:40:30;;;;;;;7.88;6.75;;;17.50;99.90;;;;;;5094159;28;20069;-78
2022/07/12 04:42:56;;;;;;;6.70;6.03;;;17.50;99.90;;;;;;5094492;28;20364;-78
2022/07/12 04:45:22;;;;;;;6.55;5.93;;;17.60;99.90;;;;;;5095004;28;20035;-77
2022/07/12 04:47:48;;;;;;;6.40;5.90;;;17.60;99.90;;;;;;5093732;28;20035;-78
2022/07/12 04:50:13;;;;;;;7.13;6.30;;;17.70;99.90;;;;;;5094705;28;20053;-78
2022/07/12 04:52:39;;;;;;;8.57;6.90;;;17.80;99.90;;;;;;5094666;28;20055;-78
2022/07/12 04:55:05;;;;;;;7.22;6.70;;;17.90;99.90;;;;;;5093621;28;20073;-78
2022/07/12 04:57:31;;;;;;;6.88;5.78;;;17.90;99.90;;;;;;5093958;28;20387;-78
2022/07/12 04:59:57;;;;;;;6.78;6.10;;;17.90;99.90;;;;;;5078822;28;20024;-79
2022/07/12 05:02:22;;;;;;;8.68;7.88;;;18.00;99.90;;;;;;5072001;28;20063;-79
2022/07/12 05:04:48;;;;;;;7.35;6.82;;;18.10;99.90;;;;;;5072748;28;20024;-78
2022/07/12 05:07:13;;;;;;;6.63;6.13;;;18.10;99.90;;;;;;5072836;28;20056;-78
2022/07/12 05:09:39;;;;;;;7.13;6.40;;;18.20;99.90;;;;;;5075607;28;20033;-78
2022/07/12 05:12:05;;;;;;;6.95;6.45;;;18.30;99.90;;;;;;5071623;28;20043;-79
2022/07/12 05:14:31;;;;;;;7.43;6.93;;;18.40;99.90;;;;;;5073216;28;20021;-80
2022/07/12 05:16:56;;;;;;;7.65;6.80;;;18.60;99.90;;;;;;5071484;28;20040;-79
2022/07/12 05:19:22;;;;;;;8.40;7.68;;;18.60;99.90;;;;;;5072784;28;20025;-77
2022/07/12 05:21:48;;;;;;;8.48;7.80;;;18.80;99.90;;;;;;5072316;28;20058;-79
2022/07/12 05:24:13;;;;;;;8.32;7.68;;;18.80;99.90;;;;;;5071643;28;20025;-78
2022/07/12 05:26:39;;;;;;;8.75;7.82;;;18.80;99.90;;;;;;5072260;28;20048;-78
2022/07/12 05:29:04;;;;;;;9.52;8.15;;;18.90;99.90;;;;;;5071915;28;20017;-78
2022/07/12 05:31:30;;;;;;;6.65;6.15;;;18.90;99.90;;;;;;5054066;28;20025;-79
2022/07/12 05:33:56;;;;;;;10.10;9.13;;;18.40;99.90;;;;;;5075197;28;20028;-77
2022/07/12 05:36:21;;;;;;;9.65;8.77;;;19.00;99.90;;;;;;5072211;28;20467;-78
2022/07/12 05:38:47;;;;;;;8.57;7.88;;;19.00;99.90;;;;;;5071837;28;20025;-78
2022/07/12 05:41:13;;;;;;;8.70;7.90;;;19.00;99.90;;;;;;5072634;28;20048;-78
2022/07/12 05:43:38;;;;;;;8.02;7.32;;;19.10;99.90;;;;;;5071741;28;20040;-76
2022/07/12 05:46:05;;;;;;;8.35;7.65;;;19.10;99.90;;;;;;5072029;28;20020;-78
2022/07/12 05:48:30;;;;;;;6.75;6.18;;;19.30;99.90;;;;;;5074053;28;20074;-78
2022/07/12 05:53:21;;;;;;;8.00;7.30;;;19.40;99.90;;;;;;5071858;28;20468;-78
2022/07/12 05:53:44;;;;;;;7.20;6.60;;;19.60;99.90;;;;;;5071707;28;20066;-80
2022/07/12 05:56:09;;;;;;;8.88;8.18;;;19.70;99.90;;;;;;5081991;28;20446;-79
2022/07/12 05:58:35;;;;;;;8.63;7.72;;;19.80;99.90;;;;;;5073281;28;20025;-78
2022/07/12 06:01:00;;;;;;;7.47;6.88;;;19.90;99.90;;;;;;5074536;28;20383;-79
2022/07/12 06:03:26;;;;;;;7.43;6.82;;;20.00;99.90;;;;;;5072228;28;20108;-79
2022/07/12 06:05:51;;;;;;;8.40;7.25;;;20.10;99.90;;;;;;5071690;28;20104;-79
2022/07/12 06:08:17;;;;;;;8.23;7.53;;;20.10;99.90;;;;;;5074143;28;20064;-78
2022/07/12 06:10:43;;;;;;;6.63;6.13;;;20.20;99.90;;;;;;5071429;28;20082;-79
2022/07/12 06:13:09;;;;;;;8.15;7.45;;;20.20;99.90;;;;;;5070703;28;20029;-79
2022/07/12 06:15:36;;;;;;;8.25;7.65;;;20.30;99.90;;;;;;5071573;28;20032;-79
2022/07/12 06:18:02;;;;;;;6.82;6.13;;;20.40;99.90;;;;;;5073947;28;20028;-80
2022/07/12 06:20:28;;;;;;;7.65;6.95;;;20.40;99.90;;;;;;5073099;28;20020;-79
2022/07/12 06:22:54;;;;;;;7.63;6.93;;;20.50;99.90;;;;;;5073381;28;20051;-79
2022/07/12 06:25:20;;;;;;;8.18;7.40;;;20.50;99.90;;;;;;5070669;28;20028;-79
2022/07/12 06:27:47;;;;;;;8.73;8.13;;;20.60;99.90;;;;;;5068937;28;20028;-78
2022/07/12 06:30:18;;;;;;;8.07;7.32;;;20.60;99.90;;;;;;5069723;28;20020;-79
2022/07/12 06:32:47;;;;;;;7.25;6.75;;;20.60;99.90;;;;;;5070459;28;20040;-79
2022/07/12 06:35:14;;;;;;;7.60;7.00;;;20.60;99.90;;;;;;5071567;28;20392;-80
2022/07/12 06:37:40;;;;;;;8.55;7.88;;;20.70;99.90;;;;;;5071542;28;20024;-79
2022/07/12 06:40:06;;;;;;;8.23;7.53;;;20.70;99.90;;;;;;5073188;28;20464;-79
2022/07/12 06:42:32;;;;;;;7.28;6.68;;;20.60;99.90;;;;;;5071289;28;20027;-78
2022/07/12 06:44:57;;;;;;;7.32;6.72;;;20.60;99.90;;;;;;5071020;28;20024;-79
2022/07/12 06:47:23;;;;;;;7.85;7.25;;;20.60;99.90;;;;;;5071230;28;20110;-80
2022/07/12 06:49:51;;;;;;;7.25;6.63;;;20.70;99.90;;;;;;5074528;28;20056;-79
2022/07/12 06:52:17;;;;;;;6.78;6.28;;;20.70;99.90;;;;;;5073045;28;20032;-79
2022/07/12 06:54:43;;;;;;;8.73;7.97;;;20.80;99.90;;;;;;5076076;28;20024;-78
2022/07/12 06:57:09;;;;;;;10.45;9.65;;;20.80;99.90;;;;;;5075469;28;20025;-79
2022/07/12 06:59:34;;;;;;;8.88;8.27;;;21.00;99.90;;;;;;5072416;28;20024;-80
2022/07/12 07:02:00;;;;;;;9.48;8.10;;;21.00;99.90;;;;;;5072382;28;20028;-78
2022/07/12 07:04:26;;;;;;;8.80;8.10;;;21.10;99.90;;;;;;5072519;28;20025;-80
2022/07/12 07:06:52;;;;;;;7.53;6.93;;;21.10;99.90;;;;;;5072549;28;20043;-80
2022/07/12 07:09:17;;;;;;;9.50;8.60;;;21.20;99.90;;;;;;5068854;28;20040;-78
2022/07/12 07:11:43;;;;;;;10.43;7.55;;;21.30;99.90;;;;;;5071509;28;20048;-76
2022/07/12 07:14:09;;;;;;;9.52;8.73;;;21.40;99.90;;;;;;5070968;28;20028;-78
2022/07/12 07:16:34;;;;;;;7.80;7.13;;;21.50;99.90;;;;;;5070760;28;20021;-78
2022/07/12 07:19:00;;;;;;;11.63;7.20;;;21.50;99.90;;;;;;5071097;28;20031;-78
2022/07/12 07:21:26;;;;;;;9.05;8.18;;;21.60;99.90;;;;;;5073320;28;20024;-78
2022/07/12 07:23:55;;;;;;;8.80;8.10;;;21.70;99.90;;;;;;5078438;28;20027;-78
2022/07/12 07:26:21;;;;;;;7.32;6.72;;;21.80;99.90;;;;;;5072776;28;20028;-78
2022/07/12 07:31:34;;;;;;;10.35;7.03;;;21.80;99.90;;;;;;5073012;28;20070;-78
2022/07/12 07:34:00;;;;;;;10.95;9.70;;;21.80;99.90;;;;;;5073245;28;20032;-75
2022/07/12 07:36:26;;;;;;;13.10;8.75;;;21.90;99.90;;;;;;5089859;28;20032;-75
2022/07/12 07:38:51;;;;;;;8.95;8.25;;;21.90;99.90;;;;;;5092960;28;20089;-77
2022/07/12 07:41:17;;;;;;;9.52;8.55;;;21.90;99.90;;;;;;5097328;28;20030;-78
2022/07/12 07:43:42;;;;;;;8.77;6.63;;;21.90;99.90;;;;;;5079524;28;20027;-78
2022/07/12 07:46:08;;;;;;;7.22;6.63;;;22.10;99.90;;;;;;5089752;28;20012;-78
2022/07/12 07:48:33;;;;;;;6.60;6.10;;;22.10;99.90;;;;;;5096873;28;20031;-79
2022/07/12 07:51:02;;;;;;;7.68;6.97;;;22.30;99.90;;;;;;5097112;28;20024;-79
2022/07/12 07:53:28;;;;;;;8.32;7.65;;;22.50;99.90;;;;;;5094071;28;20036;-78
2022/07/12 07:56:00;;;;;;;5.97;5.25;;;22.60;99.90;;;;;;5096937;28;20014;-77
2022/07/12 07:58:25;;;;;;;6.75;6.20;;;22.90;99.90;;;;;;5105087;28;20380;-79
2022/07/12 08:00:51;;;;;;;5.20;4.70;;;23.00;99.90;;;;;;5111337;28;20060;-79
2022/07/12 08:03:18;;;;;;;6.78;4.88;;;23.10;99.90;;;;;;5107009;28;20430;-77
2022/07/12 08:05:44;;;;;;;5.30;4.60;;;23.30;99.90;;;;;;5099235;28;20094;-81
2022/07/12 08:08:09;;;;;;;3.65;3.42;;;23.20;99.90;;;;;;5103739;28;20107;-80
2022/07/12 08:10:35;;;;;;;4.95;4.63;;;23.20;99.90;;;;;;5110141;28;20048;-78
2022/07/12 08:13:00;;;;;;;5.30;4.85;;;23.20;99.90;;;;;;5108054;28;20059;-80
2022/07/12 08:15:26;;;;;;;6.75;5.05;;;23.20;99.90;;;;;;5097919;28;20080;-79
2022/07/12 08:17:51;;;;;;;6.00;4.88;;;23.10;99.90;;;;;;5106680;28;21162;-78
2022/07/12 08:20:17;;;;;;;4.68;4.28;;;22.90;99.90;;;;;;5114099;28;20028;-80
2022/07/12 08:22:44;;;;;;;7.82;5.95;;;22.80;99.90;;;;;;5115508;28;20024;-80
2022/07/12 08:25:10;;;;;;;5.18;4.38;;;22.70;99.90;;;;;;5114769;28;20032;-80
2022/07/12 08:27:36;;;;;;;8.43;5.28;;;22.50;99.90;;;;;;5101607;28;20484;-78
2022/07/12 08:30:02;;;;;;;5.60;5.07;;;22.40;99.90;;;;;;5101211;28;20050;-80
2022/07/12 08:32:31;;;;;;;6.00;5.50;;;22.30;99.90;;;;;;5105523;28;20028;-81
2022/07/12 08:34:56;;;;;;;6.90;6.20;;;22.40;99.90;;;;;;5111272;28;20375;-81
2022/07/12 08:37:22;;;;;;;5.45;5.00;;;22.30;99.90;;;;;;5112718;28;20024;-80
2022/07/12 08:39:48;;;;;;;5.28;4.88;;;22.40;99.90;;;;;;5089986;28;20020;-79
2022/07/12 08:42:18;;;;;;;4.53;4.13;;;22.60;99.90;;;;;;5114918;28;20042;-80
2022/07/12 08:44:44;;;;;;;4.43;4.13;;;22.80;99.90;;;;;;5107772;28;20395;-80
2022/07/12 08:47:10;;;;;;;5.10;4.70;;;23.00;99.90;;;;;;5109914;28;20016;-79
2022/07/12 08:49:36;;;;;;;6.95;4.38;;;23.10;99.90;;;;;;5111917;28;20122;-80
2022/07/12 08:52:28;;;;;;;3.72;3.42;;;23.20;99.90;;;;;;5108623;28;20463;-79
2022/07/12 08:54:53;;;;;;;4.82;4.53;;;23.30;99.90;;;;;;5100021;28;20093;-81
2022/07/12 08:57:30;;;;;;;4.88;4.20;;;23.50;99.90;;;;;;5099105;28;20032;-80
2022/07/12 09:00:00;;;;;;;5.18;4.75;;;23.60;99.90;;;;;;5097938;28;20028;-81
2022/07/12 09:02:26;;;;;;;5.30;4.88;;;23.80;99.90;;;;;;5087854;28;20071;-79
2022/07/12 09:05:08;;;;;;;5.80;5.40;;;24.00;99.90;;;;;;5087558;28;20048;-80
2022/07/12 09:07:37;;;;;;;4.63;4.15;;;24.10;99.90;;;;;;5094849;28;20043;-79
2022/07/12 09:10:04;;;;;;;4.88;4.57;;;24.30;99.90;;;;;;5098098;28;20035;-80
2022/07/12 09:12:30;;;;;;;6.40;5.90;;;24.40;99.90;;;;;;5105886;28;20034;-81
2022/07/12 09:15:09;;;;;;;4.25;3.95;;;24.60;99.90;;;;;;5111244;28;20027;-81
2022/07/12 09:17:35;;;;;;;5.63;4.13;;;24.80;99.90;;;;;;5103197;28;20033;-80
2022/07/12 09:20:00;;;;;;;5.18;4.88;;;24.90;99.90;;;;;;5105798;28;20128;-81
2022/07/12 09:22:26;;;;;;;4.68;4.28;;;24.90;99.90;;;;;;5108727;28;20074;-80
2022/07/12 09:24:52;;;;;;;4.50;4.10;;;25.00;99.90;;;;;;5109504;28;20073;-81
2022/07/12 09:27:27;;;;;;;4.82;4.40;;;25.00;99.90;;;;;;5107560;28;20040;-83
2022/07/12 09:29:52;;;;;;;5.13;4.72;;;25.00;99.90;;;;;;5110222;28;20073;-80
2022/07/12 09:37:48;;;;;;;4.15;3.75;;;25.00;99.90;;;;;;5101820;28;20072;-80
2022/07/12 09:40:14;;;;;;;3.80;3.58;;;25.10;99.90;;;;;;5093696;28;20150;-82
2022/07/12 09:42:40;;;;;;;4.75;4.45;;;25.20;99.90;;;;;;5098518;28;20021;-81
2022/07/12 09:45:09;;;;;;;4.90;4.55;;;25.20;99.90;;;;;;5096650;28;20036;-80
2022/07/12 09:47:35;;;;;;;4.50;4.10;;;25.30;99.90;;;;;;5092967;28;20052;-82
2022/07/12 09:50:01;;;;;;;4.95;3.60;;;25.30;99.90;;;;;;5095917;28;20023;-81
2022/07/12 09:52:27;;;;;;;5.38;3.85;;;25.40;99.90;;;;;;5101056;28;20092;-81
2022/07/12 09:54:54;;;;;;;3.65;3.35;;;25.50;99.70;;;;;;5093042;28;20024;-81
2022/07/12 09:57:27;;;;;;;3.28;3.08;;;25.50;98.60;;;;;;5086197;28;20506;-81
2022/07/12 09:59:53;;;;;;;3.03;2.83;;;25.50;98.30;;;;;;5104496;28;20030;-81
2022/07/12 10:02:21;;;;;;;5.53;5.13;;;25.50;98.70;;;;;;5095566;28;20041;-81
2022/07/12 10:04:47;;;;;;;4.20;3.90;;;25.50;98.40;;;;;;5093975;28;20446;-80
2022/07/12 10:07:15;;;;;;;3.60;3.30;;;25.50;99.20;;;;;;5107064;28;20024;-80
2022/07/12 10:09:45;;;;;;;2.65;2.40;;;25.70;99.10;;;;;;5100480;28;20044;-80
2022/07/12 10:12:12;;;;;;;3.63;3.07;;;25.90;98.60;;;;;;5091718;28;20044;-80
2022/07/12 10:14:39;;;;;;;2.30;2.20;;;26.10;98.00;;;;;;5088868;28;20332;-80
2022/07/12 10:17:09;;;;;;;2.85;2.65;;;26.20;96.80;;;;;;5092619;28;20094;-80
2022/07/12 10:19:36;;;;;;;3.70;3.25;;;26.30;96.70;;;;;;5095735;28;20023;-80
2022/07/12 10:22:04;;;;;;;3.45;3.22;;;26.30;96.20;;;;;;5090975;28;20024;-80
2022/07/12 10:24:33;;;;;;;2.95;2.75;;;26.20;96.90;;;;;;5090263;28;20016;-81
2022/07/12 10:27:14;;;;;;;4.05;3.80;;;26.20;97.20;;;;;;5107607;28;20042;-82
2022/07/12 10:29:43;;;;;;;3.92;3.33;;;26.10;97.50;;;;;;5108745;28;20980;-82
2022/07/12 10:32:25;;;;;;;4.22;3.83;;;26.10;97.00;;;;;;5109847;28;20036;-83
2022/07/12 10:35:05;;;;;;;3.88;3.58;;;26.10;97.70;;;;;;5107224;28;20020;-83
2022/07/12 10:37:31;;;;;;;3.78;3.47;;;26.10;97.60;;;;;;5112753;28;20019;-82
2022/07/12 10:40:15;;;;;;;2.90;2.72;;;26.20;96.60;;;;;;5114918;28;20020;-83
2022/07/12 10:43:05;;;;;;;3.00;2.80;;;26.20;96.30;;;;;;5108625;28;20108;-82
2022/07/12 10:45:40;;;;;;;3.13;2.92;;;26.20;95.70;;;;;;5107927;28;20024;-83
2022/07/12 10:48:18;;;;;;;5.55;4.53;;;26.30;96.70;;;;;;5093313;28;20031;-76
2022/07/12 10:50:55;;;;;;;3.55;3.25;;;26.30;96.40;;;;;;5096937;28;20040;-79
2022/07/12 10:53:23;;;;;;;5.18;3.20;;;26.20;96.00;;;;;;5087427;28;20560;-80
2022/07/12 10:56:25;;;;;;;4.95;4.32;;;26.40;96.80;;;;;;5083849;28;20666;-81
2022/07/12 10:58:56;;;;;;;5.25;4.85;;;26.50;96.80;;;;;;5091014;28;20080;-82
2022/07/12 11:01:27;;;;;;;6.40;5.20;;;26.70;96.60;;;;;;5104135;28;20438;-80
2022/07/12 11:04:10;;;;;;;5.80;5.40;;;26.70;96.50;;;;;;5092282;28;20384;-80
2022/07/12 11:06:37;;;;;;;5.65;4.85;;;26.70;96.40;;;;;;5101050;28;20472;-82
2022/07/12 11:09:04;;;;;;;3.13;2.92;;;26.70;96.70;;;;;;5106111;28;20462;-81
2022/07/12 11:11:45;;;;;;;4.60;4.13;;;26.70;96.20;;;;;;5107873;28;20029;-81
2022/07/12 11:14:26;;;;;;;5.13;4.72;;;26.70;96.10;;;;;;5087224;28;20043;-81
2022/07/12 11:16:54;;;;;;;4.65;4.25;;;26.80;95.90;;;;;;5094111;28;20023;-81
2022/07/12 11:19:24;;;;;;;5.55;4.38;;;26.90;96.30;;;;;;5087316;28;20027;-81
2022/07/12 11:21:58;;;;;;;4.57;4.18;;;27.00;96.40;;;;;;5089516;28;20013;-79
2022/07/12 11:24:31;;;;;;;5.13;4.20;;;27.00;95.80;;;;;;5079845;28;20029;-81
2022/07/12 11:26:59;;;;;;;4.43;3.97;;;27.10;96.00;;;;;;5087334;28;20021;-82
2022/07/12 11:29:25;;;;;;;6.05;4.53;;;27.20;95.70;;;;;;5085808;28;20024;-81
2022/07/12 11:32:00;;;;;;;3.63;3.33;;;27.20;95.40;;;;;;5077823;28;20078;-81
2022/07/12 11:34:26;;;;;;;3.97;3.40;;;27.30;94.80;;;;;;5090969;28;20107;-82
2022/07/12 11:37:01;;;;;;;4.00;3.20;;;27.40;92.70;;;;;;5083427;28;20028;-81
2022/07/12 11:39:34;;;;;;;4.13;3.72;;;27.50;93.70;;;;;;5074886;28;20028;-81
2022/07/12 11:42:00;;;;;;;3.25;3.05;;;27.60;94.40;;;;;;5081278;28;20024;-82
2022/07/12 11:44:42;;;;;;;4.07;3.63;;;27.70;94.30;;;;;;5106455;28;20040;-83
2022/07/12 11:47:08;;;;;;;2.95;2.65;;;27.80;93.40;;;;;;5081131;28;20116;-80
2022/07/12 11:49:33;;;;;;;2.72;2.53;;;27.90;94.00;;;;;;5080877;28;20052;-79
2022/07/12 11:51:59;;;;;;;2.88;2.60;;;27.90;92.40;;;;;;5102578;28;20396;-83
2022/07/12 11:54:25;;;;;;;9.38;4.13;;;28.00;92.10;;;;;;5075897;28;20108;-82
2022/07/12 11:57:05;;;;;;;3.53;3.22;;;28.00;92.60;;;;;;5092381;28;20020;-82
2022/07/12 11:59:31;;;;;;;3.40;3.20;;;28.00;93.10;;;;;;5085849;28;20027;-81
2022/07/12 12:02:07;;;;;;;2.72;2.53;;;28.10;93.20;;;;;;5079446;28;20052;-81
2022/07/12 12:04:46;;;;;;;3.10;2.80;;;28.20;93.50;;;;;;5084554;28;20028;-81
2022/07/12 12:07:16;;;;;;;2.43;2.20;;;28.20;92.70;;;;;;5089157;28;20107;-81
2022/07/12 12:10:01;;;;;;;2.63;2.25;;;28.40;92.30;;;;;;5089274;28;20040;-79
2022/07/12 12:12:47;;;;;;;3.53;3.22;;;28.40;90.90;;;;;;5075520;28;20081;-82
2022/07/12 12:15:21;;;;;;;4.13;3.10;;;28.40;91.70;;;;;;5075056;28;20425;-82
2022/07/12 12:18:00;;;;;;;4.38;2.72;;;28.40;91.60;;;;;;5077944;28;20021;-82
2022/07/12 12:20:37;;;;;;;2.87;2.67;;;28.50;91.70;;;;;;5084422;28;20020;-83
2022/07/12 12:23:15;;;;;;;5.28;3.13;;;28.60;91.70;;;;;;5078142;28;20028;-82
2022/07/12 12:25:40;;;;;;;3.03;2.58;;;28.70;91.80;;;;;;5078972;28;20443;-82
2022/07/12 12:28:10;;;;;;;3.97;3.67;;;28.90;91.60;;;;;;5078805;28;20024;-82
2022/07/12 12:30:51;;;;;;;2.47;2.28;;;29.10;90.70;;;;;;5088140;28;20024;-80
2022/07/12 12:33:35;;;;;;;2.38;2.20;;;29.30;90.90;;;;;;5076161;28;20040;-82
2022/07/12 12:36:13;;;;;;;2.95;2.72;;;29.60;91.00;;;;;;5090272;28;20081;-83
2022/07/12 12:38:39;;;;;;;3.22;2.60;;;29.90;90.20;;;;;;5083348;28;20367;-83
2022/07/12 12:41:09;;;;;;;2.55;2.38;;;30.10;90.30;;;;;;5097473;28;20081;-84
2022/07/12 12:43:35;;;;;;;2.50;2.30;;;30.30;89.90;;;;;;5101559;28;20531;-84
2022/07/12 12:46:00;;;;;;;2.80;2.60;;;30.40;87.20;;;;;;5086364;28;20063;-82
2022/07/12 12:48:29;;;;;;;7.68;2.40;;;30.60;88.20;;;;;;5095888;28;20364;-82
2022/07/12 12:51:20;;;;;;;5.05;2.53;;;30.80;87.60;;;;;;5098238;28;20128;-82
2022/07/12 12:53:55;;;;;;;11.23;3.45;;;31.00;87.60;;;;;;5097450;28;20392;-83
2022/07/12 12:56:20;;;;;;;3.03;2.83;;;31.00;86.90;;;;;;5099467;28;20025;-83
2022/07/12 12:58:48;;;;;;;3.47;3.17;;;31.00;87.30;;;;;;5099311;28;20039;-82
2022/07/12 13:01:14;;;;;;;3.03;2.83;;;31.00;87.60;;;;;;5097901;28;20024;-84